createdAt,value
2023-03-16T00:02:01.272Z,3.10
2023-03-16T00:04:14.374Z,3.20
2023-03-16T00:06:27.310Z,3.20
2023-03-16T00:08:40.551Z,3.10
2023-03-16T00:10:55.371Z,3.10
2023-03-16T00:13:08.300Z,3.30
2023-03-16T00:15:21.241Z,4.30
2023-03-16T00:17:36.051Z,4.60
2023-03-16T00:19:51.236Z,3.00
2023-03-16T00:22:04.261Z,4.40
2023-03-16T00:24:19.438Z,2.90
2023-03-16T00:26:33.163Z,4.00
2023-03-16T00:28:46.372Z,3.80
2023-03-16T00:31:00.484Z,3.30
2023-03-16T00:33:13.427Z,5.70
2023-03-16T00:35:26.561Z,3.70
2023-03-16T00:37:40.684Z,3.30
2023-03-16T00:39:54.147Z,5.40
2023-03-16T00:42:07.104Z,4.70
2023-03-16T00:44:20.125Z,4.60
2023-03-16T00:46:33.089Z,3.50
2023-03-16T00:48:47.570Z,4.50
2023-03-16T00:51:00.886Z,3.70
2023-03-16T00:53:14.083Z,3.20
2023-03-16T00:55:28.428Z,3.60
2023-03-16T00:57:42.226Z,4.40
2023-03-16T00:59:55.530Z,3.10
2023-03-16T01:02:10.847Z,3.60
2023-03-16T01:04:24.305Z,4.40
2023-03-16T01:06:39.889Z,4.30
2023-03-16T01:08:54.014Z,3.40
2023-03-16T01:11:17.632Z,4.70
2023-03-16T01:13:30.523Z,4.10
2023-03-16T01:15:44.187Z,4.10
2023-03-16T01:17:58.294Z,3.90
2023-03-16T01:20:16.674Z,3.60
2023-03-16T01:22:30.405Z,5.10
2023-03-16T01:24:43.715Z,4.10
2023-03-16T01:26:57.591Z,2.80
2023-03-16T01:29:10.515Z,4.40
2023-03-16T01:31:24.068Z,4.80
2023-03-16T01:33:37.414Z,3.00
2023-03-16T01:36:00.755Z,3.80
2023-03-16T01:38:17.759Z,4.60
2023-03-16T01:40:32.595Z,3.20
2023-03-16T01:42:51.778Z,2.60
2023-03-16T01:47:39.232Z,1.80
2023-03-16T01:50:00.760Z,1.80
2023-03-16T01:52:22.433Z,1.40
2023-03-16T01:54:38.936Z,1.80
2023-03-16T01:56:59.227Z,1.40
2023-03-16T01:59:17.920Z,2.10
2023-03-16T02:01:32.606Z,2.00
2023-03-16T02:03:46.996Z,2.10
2023-03-16T02:06:09.914Z,2.00
2023-03-16T02:08:27.954Z,3.10
2023-03-16T02:10:43.862Z,2.20
2023-03-16T02:12:59.175Z,6.70
2023-03-16T02:15:16.336Z,3.10
2023-03-16T02:17:32.197Z,1.90
2023-03-16T02:19:57.076Z,2.10
2023-03-16T02:22:12.457Z,1.60
2023-03-16T02:24:25.629Z,1.80
2023-03-16T02:26:46.531Z,1.60
2023-03-16T02:29:20.869Z,1.40
2023-03-16T02:31:35.519Z,2.50
2023-03-16T02:33:50.992Z,1.90
2023-03-16T02:36:04.969Z,2.80
2023-03-16T02:38:17.915Z,2.00
2023-03-16T02:40:37.709Z,2.10
2023-03-16T02:42:57.496Z,2.60
2023-03-16T02:45:16.086Z,3.30
2023-03-16T02:47:37.472Z,2.90
2023-03-16T02:49:51.957Z,2.20
2023-03-16T02:52:05.695Z,2.40
2023-03-16T02:54:19.068Z,2.20
2023-03-16T02:56:32.167Z,2.00
2023-03-16T02:58:45.514Z,2.70
2023-03-16T03:01:02.625Z,1.90
2023-03-16T03:03:15.973Z,2.20
2023-03-16T03:05:29.055Z,1.80
2023-03-16T03:07:43.226Z,1.20
2023-03-16T03:09:56.314Z,1.50
2023-03-16T03:12:10.266Z,1.50
2023-03-16T03:14:23.494Z,2.40
2023-03-16T03:16:37.434Z,1.40
2023-03-16T03:18:50.974Z,2.10
2023-03-16T03:21:04.496Z,2.70
2023-03-16T03:23:18.406Z,1.60
2023-03-16T03:25:31.766Z,1.50
2023-03-16T03:27:45.618Z,1.70
2023-03-16T03:30:01.726Z,1.40
2023-03-16T03:32:16.117Z,2.10
2023-03-16T03:34:29.661Z,1.60
2023-03-16T03:36:44.513Z,1.60
2023-03-16T03:38:57.787Z,1.30
2023-03-16T03:41:11.365Z,1.20
2023-03-16T03:43:25.397Z,1.20
2023-03-16T03:45:38.684Z,1.90
2023-03-16T03:47:52.086Z,2.60
2023-03-16T03:50:06.457Z,1.20
2023-03-16T03:52:20.718Z,1.70
2023-03-16T03:54:45.568Z,1.40
2023-03-16T03:57:21.931Z,1.30
2023-03-16T03:59:45.124Z,1.80
2023-03-16T04:02:39.973Z,1.40
2023-03-16T04:05:21.105Z,1.20
2023-03-16T04:07:49.724Z,1.40
2023-03-16T04:10:17.896Z,1.80
2023-03-16T04:12:33.975Z,1.30
2023-03-16T04:15:06.484Z,1.50
2023-03-16T04:17:35.484Z,1.30
2023-03-16T04:20:08.823Z,4.40
2023-03-16T04:22:35.892Z,2.20
2023-03-16T04:24:58.763Z,2.90
2023-03-16T04:27:32.604Z,2.70
2023-03-16T04:30:10.594Z,2.10
2023-03-16T04:32:35.481Z,2.40
2023-03-16T04:35:15.035Z,3.20
2023-03-16T04:37:41.306Z,2.70
2023-03-16T04:40:11.337Z,2.60
2023-03-16T04:42:26.117Z,2.10
2023-03-16T04:44:45.417Z,1.90
2023-03-16T04:47:00.543Z,12.00
2023-03-16T04:49:20.515Z,11.30
2023-03-16T04:51:34.987Z,8.00
2023-03-16T04:53:53.786Z,6.10
2023-03-16T04:56:20.608Z,3.20
2023-03-16T05:00:52.592Z,12.60
2023-03-16T05:03:15.685Z,8.20
2023-03-16T05:05:29.210Z,5.50
2023-03-16T05:07:42.723Z,4.50
2023-03-16T05:09:55.954Z,2.50
2023-03-16T05:12:09.475Z,2.20
2023-03-16T05:14:29.240Z,2.90
2023-03-16T05:19:07.916Z,1.70
2023-03-16T05:21:23.985Z,1.40
2023-03-16T05:23:43.064Z,1.50
2023-03-16T05:25:57.643Z,1.60
2023-03-16T05:28:11.227Z,1.30
2023-03-16T05:30:32.555Z,1.60
2023-03-16T05:32:48.823Z,2.50
2023-03-16T05:35:06.676Z,4.80
2023-03-16T05:37:20.298Z,4.40
2023-03-16T05:39:33.927Z,3.00
2023-03-16T05:41:47.587Z,4.70
2023-03-16T05:44:10.321Z,5.90
2023-03-16T05:46:46.977Z,7.50
2023-03-16T05:49:00.213Z,3.70
2023-03-16T05:51:16.709Z,5.20
2023-03-16T05:53:32.891Z,2.90
2023-03-16T05:55:58.118Z,1.60
2023-03-16T05:58:11.489Z,2.80
2023-03-16T06:00:35.668Z,1.80
2023-03-16T06:03:04.473Z,2.30
2023-03-16T06:05:20.375Z,2.50
2023-03-16T06:07:35.014Z,1.50
2023-03-16T06:09:52.141Z,1.70
2023-03-16T06:12:08.542Z,2.90
2023-03-16T06:14:24.593Z,7.40
2023-03-16T06:16:44.248Z,5.90
2023-03-16T06:19:14.714Z,1.80
2023-03-16T06:21:42.807Z,2.90
2023-03-16T06:23:57.850Z,3.10
2023-03-16T06:26:13.951Z,2.60
2023-03-16T06:28:28.830Z,4.60
2023-03-16T06:31:00.552Z,2.70
2023-03-16T06:34:11.446Z,1.60
2023-03-16T06:36:59.287Z,1.80
2023-03-16T06:39:13.213Z,1.70
2023-03-16T06:41:28.370Z,1.60
2023-03-16T06:43:42.009Z,1.40
2023-03-16T06:45:55.659Z,1.40
2023-03-16T06:48:11.234Z,1.40
2023-03-16T06:50:24.863Z,1.80
2023-03-16T06:52:37.683Z,1.80
2023-03-16T06:54:50.935Z,1.70
2023-03-16T06:57:05.773Z,1.90
2023-03-16T06:59:19.493Z,1.40
2023-03-16T07:01:32.975Z,2.00
2023-03-16T07:03:47.477Z,1.50
2023-03-16T07:06:10.002Z,1.90
2023-03-16T07:08:23.132Z,1.40
2023-03-16T07:10:36.057Z,1.40
2023-03-16T07:12:56.780Z,1.70
2023-03-16T07:15:11.346Z,1.20
2023-03-16T07:17:24.856Z,1.20
2023-03-16T07:19:38.660Z,1.50
2023-03-16T07:21:52.800Z,2.10
2023-03-16T07:24:11.479Z,1.80
2023-03-16T07:26:37.977Z,1.60
2023-03-16T07:28:51.838Z,1.60
2023-03-16T07:31:17.909Z,1.60
2023-03-16T07:33:31.916Z,2.00
2023-03-16T07:35:45.118Z,1.90
2023-03-16T07:38:12.297Z,1.70
2023-03-16T07:40:27.248Z,1.70
2023-03-16T07:42:45.265Z,1.70
2023-03-16T07:45:13.556Z,2.00
2023-03-16T07:47:27.114Z,1.60
2023-03-16T07:49:42.595Z,1.60
2023-03-16T07:52:01.671Z,1.50
2023-03-16T07:54:40.428Z,1.70
2023-03-16T07:56:53.693Z,1.90
2023-03-16T07:59:20.777Z,1.40
2023-03-16T08:01:40.715Z,1.60
2023-03-16T08:03:54.716Z,1.70
2023-03-16T08:06:20.295Z,1.50
2023-03-16T08:08:33.935Z,1.30
2023-03-16T08:10:50.548Z,1.60
2023-03-16T08:13:11.755Z,1.40
2023-03-16T08:15:27.936Z,1.40
2023-03-16T08:17:45.598Z,1.30
2023-03-16T08:20:11.564Z,1.50
2023-03-16T08:22:25.528Z,1.40
2023-03-16T08:24:51.669Z,1.70
2023-03-16T08:27:05.847Z,1.10
2023-03-16T08:29:20.360Z,1.30
2023-03-16T08:31:36.232Z,1.20
2023-03-16T08:34:12.470Z,1.50
2023-03-16T08:36:29.672Z,1.30
2023-03-16T08:38:45.371Z,1.20
2023-03-16T08:41:01.980Z,1.20
2023-03-16T08:43:15.259Z,1.40
2023-03-16T08:45:29.083Z,1.30
2023-03-16T08:47:41.988Z,1.90
2023-03-16T08:49:55.024Z,1.70
2023-03-16T08:52:08.728Z,1.50
2023-03-16T08:54:21.896Z,1.80
2023-03-16T08:56:35.210Z,1.60
2023-03-16T08:58:50.533Z,1.50
2023-03-16T09:01:04.992Z,2.00
2023-03-16T09:03:17.847Z,2.70
2023-03-16T09:05:31.852Z,1.40
2023-03-16T09:07:45.822Z,1.20
2023-03-16T09:09:59.856Z,1.60
2023-03-16T09:12:15.096Z,1.40
2023-03-16T09:14:28.032Z,1.40
2023-03-16T09:16:41.629Z,1.50
2023-03-16T09:18:54.875Z,1.30
2023-03-16T09:21:11.565Z,1.80
2023-03-16T09:23:25.055Z,1.40
2023-03-16T09:25:38.549Z,1.60
2023-03-16T09:27:51.997Z,1.40
2023-03-16T09:30:06.195Z,1.70
2023-03-16T09:32:19.642Z,1.40
2023-03-16T09:34:33.500Z,1.20
2023-03-16T09:36:47.705Z,1.50
2023-03-16T09:39:00.913Z,1.40
2023-03-16T09:41:27.168Z,1.80
2023-03-16T09:43:58.512Z,1.50
2023-03-16T09:46:17.663Z,1.40
2023-03-16T09:48:34.069Z,1.50
2023-03-16T09:50:49.756Z,1.40
2023-03-16T09:53:12.101Z,1.20
2023-03-16T09:55:34.436Z,1.20
2023-03-16T09:57:50.026Z,1.50
2023-03-16T10:00:11.595Z,1.20
2023-03-16T10:02:44.352Z,1.30
2023-03-16T10:05:10.821Z,1.70
2023-03-16T10:07:34.557Z,1.70
2023-03-16T10:09:56.124Z,1.30
2023-03-16T10:12:11.778Z,1.40
2023-03-16T10:14:31.135Z,1.80
2023-03-16T10:16:51.674Z,1.20
2023-03-16T10:19:13.075Z,1.40
2023-03-16T10:21:29.896Z,1.10
2023-03-16T10:23:43.476Z,1.30
2023-03-16T10:25:57.625Z,1.10
2023-03-16T10:28:11.181Z,1.50
2023-03-16T10:30:31.165Z,1.50
2023-03-16T10:32:44.289Z,1.40
2023-03-16T10:35:02.320Z,1.60
2023-03-16T10:37:18.985Z,2.00
2023-03-16T10:39:44.128Z,1.60
2023-03-16T10:42:05.252Z,1.30
2023-03-16T10:44:20.114Z,1.40
2023-03-16T10:46:39.135Z,1.50
2023-03-16T10:49:02.539Z,2.10
2023-03-16T10:51:21.260Z,2.10
2023-03-16T10:53:38.613Z,1.20
2023-03-16T10:55:53.961Z,2.00
2023-03-16T10:58:07.291Z,1.20
2023-03-16T11:00:25.134Z,1.50
2023-03-16T11:02:40.477Z,1.20
2023-03-16T11:04:54.631Z,1.20
2023-03-16T11:07:11.130Z,1.20
2023-03-16T11:09:29.987Z,1.50
2023-03-16T11:11:49.918Z,1.40
2023-03-16T11:14:07.699Z,1.10
2023-03-16T11:16:29.169Z,1.10
2023-03-16T11:18:47.305Z,1.60
2023-03-16T11:21:01.785Z,1.00
2023-03-16T11:23:20.035Z,1.40
2023-03-16T11:25:37.965Z,1.50
2023-03-16T11:27:57.160Z,1.10
2023-03-16T11:30:17.800Z,1.40
2023-03-16T11:32:37.252Z,1.30
2023-03-16T11:34:51.307Z,1.80
2023-03-16T11:37:14.587Z,1.40
2023-03-16T11:39:41.643Z,1.80
2023-03-16T11:42:05.480Z,2.00
2023-03-16T11:44:26.616Z,1.60
2023-03-16T11:46:44.956Z,1.20
2023-03-16T11:49:29.727Z,2.10
2023-03-16T11:51:56.385Z,1.60
2023-03-16T11:54:21.300Z,1.20
2023-03-16T11:56:39.459Z,1.30
2023-03-16T11:59:20.379Z,1.40
2023-03-16T12:01:57.944Z,1.20
2023-03-16T12:04:38.241Z,1.30
2023-03-16T12:07:06.567Z,1.10
2023-03-16T12:09:48.485Z,1.10
2023-03-16T12:12:05.919Z,1.20
2023-03-16T12:14:27.846Z,1.40
2023-03-16T12:16:49.948Z,1.20
2023-03-16T12:19:06.586Z,1.40
2023-03-16T12:21:24.202Z,1.00
2023-03-16T12:23:41.604Z,1.30
2023-03-16T12:25:56.362Z,1.50
2023-03-16T12:28:15.266Z,1.00
2023-03-16T12:30:38.834Z,1.50
2023-03-16T12:32:58.750Z,1.60
2023-03-16T12:35:20.288Z,1.30
2023-03-16T12:37:44.869Z,1.30
2023-03-16T12:40:13.580Z,1.20
2023-03-16T12:42:43.733Z,1.70
2023-03-16T12:45:06.108Z,1.60
2023-03-16T12:47:30.221Z,1.20
2023-03-16T12:49:44.332Z,1.00
2023-03-16T12:52:05.964Z,1.40
2023-03-16T12:54:27.725Z,1.40
2023-03-16T12:56:48.771Z,1.20
2023-03-16T12:59:03.480Z,1.00
2023-03-16T13:01:18.211Z,1.50
2023-03-16T13:03:32.443Z,1.40
2023-03-16T13:05:54.434Z,1.10
2023-03-16T13:08:17.688Z,2.00
2023-03-16T13:10:32.475Z,1.10
2023-03-16T13:12:47.435Z,1.80
2023-03-16T13:15:01.367Z,1.00
2023-03-16T13:17:30.510Z,1.30
2023-03-16T13:19:46.290Z,1.00
2023-03-16T13:22:22.585Z,1.10
2023-03-16T13:24:43.076Z,1.60
2023-03-16T13:27:02.342Z,1.20
2023-03-16T13:29:28.284Z,1.20
2023-03-16T13:31:44.884Z,1.30
2023-03-16T13:34:01.251Z,1.10
2023-03-16T13:36:16.627Z,1.10
2023-03-16T13:38:32.078Z,1.40
2023-03-16T13:40:51.386Z,1.50
2023-03-16T13:43:05.371Z,1.50
2023-03-16T13:45:23.037Z,1.70
2023-03-16T13:47:36.507Z,1.10
2023-03-16T13:49:54.528Z,2.20
2023-03-16T13:52:09.588Z,2.60
2023-03-16T13:54:29.288Z,1.30
2023-03-16T13:56:42.717Z,1.50
2023-03-16T13:58:59.126Z,1.50
2023-03-16T14:01:23.557Z,1.30
2023-03-16T14:03:40.617Z,1.30
2023-03-16T14:05:54.931Z,1.60
2023-03-16T14:08:17.960Z,1.80
2023-03-16T14:10:35.423Z,2.10
2023-03-16T14:12:56.916Z,1.00
2023-03-16T14:17:24.420Z,1.10
2023-03-16T14:19:43.581Z,1.50
2023-03-16T14:21:57.180Z,1.50
2023-03-16T14:24:21.859Z,1.10
2023-03-16T14:26:46.836Z,1.20
2023-03-16T14:29:09.840Z,1.30
2023-03-16T14:31:25.583Z,1.30
2023-03-16T14:33:42.501Z,1.50
2023-03-16T14:36:01.553Z,1.50
2023-03-16T14:38:37.360Z,2.70
2023-03-16T14:40:59.538Z,1.40
2023-03-16T14:43:13.950Z,1.30
2023-03-16T14:45:30.460Z,1.30
2023-03-16T14:47:46.543Z,1.00
2023-03-16T14:50:00.899Z,1.20
2023-03-16T14:52:23.590Z,1.20
2023-03-16T14:56:51.791Z,1.20
2023-03-16T14:59:05.280Z,1.10
2023-03-16T15:01:22.218Z,2.00
2023-03-16T15:03:39.467Z,1.60
2023-03-16T15:05:54.228Z,1.30
2023-03-16T15:08:08.771Z,1.30
2023-03-16T15:10:29.154Z,1.70
2023-03-16T15:12:42.670Z,1.60
2023-03-16T15:15:12.384Z,1.70
2023-03-16T15:17:26.241Z,1.80
2023-03-16T15:19:40.108Z,1.20
2023-03-16T15:21:53.131Z,1.70
2023-03-16T15:24:06.524Z,1.70
2023-03-16T15:26:24.928Z,1.80
2023-03-16T15:28:38.784Z,1.60
2023-03-16T15:30:54.021Z,1.40
2023-03-16T15:33:07.522Z,1.90
2023-03-16T15:35:21.265Z,3.20
2023-03-16T15:37:35.814Z,1.30
2023-03-16T15:39:50.920Z,1.60
2023-03-16T15:42:04.521Z,1.50
2023-03-16T15:44:18.362Z,1.90
2023-03-16T15:46:31.450Z,1.70
2023-03-16T15:48:45.596Z,1.50
2023-03-16T15:51:02.007Z,1.60
2023-03-16T15:53:30.214Z,1.70
2023-03-16T15:55:46.149Z,1.60
2023-03-16T15:58:04.108Z,1.30
2023-03-16T16:00:33.135Z,1.10
2023-03-16T16:02:46.530Z,1.40
2023-03-16T16:04:59.478Z,1.30
2023-03-16T16:07:16.277Z,1.40
2023-03-16T16:09:29.918Z,1.20
2023-03-16T16:11:43.350Z,1.10
2023-03-16T16:13:58.010Z,1.10
2023-03-16T16:16:12.861Z,1.70
2023-03-16T16:18:42.311Z,1.10
2023-03-16T16:20:55.862Z,1.20
2023-03-16T16:23:15.440Z,1.80
2023-03-16T16:25:31.797Z,1.20
2023-03-16T16:27:45.039Z,1.20
2023-03-16T16:29:58.408Z,1.40
2023-03-16T16:32:27.964Z,1.20
2023-03-16T16:34:41.355Z,0.70
2023-03-16T16:36:54.512Z,1.20
2023-03-16T16:39:07.530Z,1.10
2023-03-16T16:41:29.684Z,1.00
2023-03-16T16:43:44.981Z,1.00
2023-03-16T16:45:58.695Z,0.90
2023-03-16T16:48:30.793Z,0.80
2023-03-16T16:50:43.696Z,1.00
2023-03-16T16:52:58.680Z,0.90
2023-03-16T16:55:12.357Z,1.40
2023-03-16T16:57:26.384Z,1.20
2023-03-16T16:59:40.798Z,1.00
2023-03-16T17:01:55.555Z,1.70
2023-03-16T17:04:15.356Z,1.00
2023-03-16T17:06:29.056Z,1.30
2023-03-16T17:08:41.876Z,1.20
2023-03-16T17:10:56.266Z,1.20
2023-03-16T17:13:10.375Z,1.10
2023-03-16T17:15:29.096Z,0.80
2023-03-16T17:17:42.535Z,1.00
2023-03-16T17:19:56.484Z,0.80
2023-03-16T17:22:20.767Z,0.80
2023-03-16T17:24:34.186Z,1.00
2023-03-16T17:26:49.369Z,0.80
2023-03-16T17:29:04.967Z,1.00
2023-03-16T17:31:22.630Z,0.90
2023-03-16T17:33:35.578Z,0.90
2023-03-16T17:35:48.427Z,1.00
2023-03-16T17:38:01.398Z,0.70
2023-03-16T17:40:22.316Z,0.90
2023-03-16T17:42:35.348Z,1.20
2023-03-16T17:44:50.673Z,1.20
2023-03-16T17:47:04.007Z,1.10
2023-03-16T17:49:21.137Z,3.00
2023-03-16T17:51:35.816Z,0.70
2023-03-16T17:53:49.624Z,1.10
2023-03-16T17:56:06.222Z,0.90
2023-03-16T17:58:29.047Z,1.30
2023-03-16T18:00:43.541Z,1.10
2023-03-16T18:03:00.029Z,0.90
2023-03-16T18:05:22.118Z,1.30
2023-03-16T18:07:35.037Z,0.80
2023-03-16T18:09:49.034Z,1.00
2023-03-16T18:12:02.370Z,1.00
2023-03-16T18:14:26.920Z,1.10
2023-03-16T18:16:40.538Z,1.00
2023-03-16T18:18:55.102Z,0.90
2023-03-16T18:21:09.989Z,0.70
2023-03-16T18:23:26.286Z,0.80
2023-03-16T18:25:41.396Z,0.80
2023-03-16T18:27:54.379Z,0.90
2023-03-16T18:30:07.882Z,0.70
2023-03-16T18:32:27.552Z,0.70
2023-03-16T18:34:40.558Z,0.70
2023-03-16T18:36:54.655Z,0.80
2023-03-16T18:39:09.819Z,0.70
2023-03-16T18:41:25.686Z,0.70
2023-03-16T18:43:39.179Z,1.10
2023-03-16T18:45:54.847Z,0.90
2023-03-16T18:48:08.623Z,0.90
2023-03-16T18:50:31.350Z,0.70
2023-03-16T18:54:56.839Z,0.80
2023-03-16T18:57:19.816Z,0.70
2023-03-16T18:59:32.562Z,0.70
2023-03-16T19:01:48.382Z,0.80
2023-03-16T19:04:02.751Z,1.00
2023-03-16T19:06:23.001Z,2.80
2023-03-16T19:08:35.951Z,4.30
2023-03-16T19:10:52.760Z,3.60
2023-03-16T19:13:06.106Z,2.10
2023-03-16T19:15:26.137Z,2.30
2023-03-16T19:17:39.547Z,2.60
2023-03-16T19:19:52.654Z,1.80
2023-03-16T19:22:10.925Z,1.80
2023-03-16T19:24:30.096Z,3.20
2023-03-16T19:26:43.555Z,2.10
2023-03-16T19:28:56.764Z,3.30
2023-03-16T19:31:17.669Z,2.90
2023-03-16T19:33:32.278Z,2.90
2023-03-16T19:35:51.847Z,2.60
2023-03-16T19:38:05.576Z,2.90
2023-03-16T19:40:21.010Z,2.80
2023-03-16T19:42:37.477Z,3.00
2023-03-16T19:44:51.908Z,2.80
2023-03-16T19:47:05.869Z,2.60
2023-03-16T19:49:23.119Z,3.10
2023-03-16T19:51:36.680Z,3.10
2023-03-16T19:53:50.912Z,2.60
2023-03-16T19:56:04.939Z,2.30
2023-03-16T19:58:26.652Z,2.80
2023-03-16T20:00:39.993Z,2.40
2023-03-16T20:02:57.949Z,3.20
2023-03-16T20:05:19.271Z,3.40
2023-03-16T20:07:32.195Z,3.40
2023-03-16T20:09:45.119Z,4.80
2023-03-16T20:11:58.189Z,3.30
2023-03-16T20:14:17.949Z,3.90
2023-03-16T20:16:33.330Z,3.10
2023-03-16T20:18:46.755Z,3.40
2023-03-16T20:20:59.629Z,1.60
2023-03-16T20:23:22.308Z,2.80
2023-03-16T20:25:37.960Z,3.40
2023-03-16T20:27:58.498Z,2.90
2023-03-16T20:30:21.544Z,2.10
2023-03-16T20:32:40.932Z,3.70
2023-03-16T20:34:55.136Z,3.10
2023-03-16T20:37:12.387Z,5.80
2023-03-16T20:39:25.404Z,3.10
2023-03-16T20:41:39.949Z,2.30
2023-03-16T20:43:53.277Z,3.90
2023-03-16T20:46:06.981Z,6.70
2023-03-16T20:48:22.044Z,5.90
2023-03-16T20:50:35.812Z,4.40
2023-03-16T20:52:49.077Z,3.20
2023-03-16T20:55:02.630Z,4.70
2023-03-16T20:57:22.486Z,2.10
2023-03-16T20:59:36.060Z,3.20
2023-03-16T21:01:49.170Z,2.90
2023-03-16T21:04:01.974Z,3.10
2023-03-16T21:06:25.019Z,3.30
2023-03-16T21:08:37.925Z,3.50
2023-03-16T21:10:52.908Z,3.50
2023-03-16T21:13:06.336Z,3.80
2023-03-16T21:15:28.623Z,3.80
2023-03-16T21:17:43.966Z,2.10
2023-03-16T21:19:57.688Z,1.90
2023-03-16T21:22:22.051Z,3.00
2023-03-16T21:24:35.525Z,3.40
2023-03-16T21:26:49.305Z,3.60
2023-03-16T21:29:05.377Z,2.80
2023-03-16T21:31:22.033Z,3.60
2023-03-16T21:33:38.328Z,3.30
2023-03-16T21:35:51.194Z,3.50
2023-03-16T21:38:05.317Z,2.50
2023-03-16T21:40:25.028Z,3.00
2023-03-16T21:42:38.187Z,2.50
2023-03-16T21:44:51.871Z,2.90
2023-03-16T21:47:05.018Z,2.30
2023-03-16T21:49:19.145Z,3.80
2023-03-16T21:51:34.707Z,2.40
2023-03-16T21:53:49.007Z,3.00
2023-03-16T21:56:02.726Z,2.80
2023-03-16T21:58:18.363Z,2.90
2023-03-16T22:00:34.535Z,3.50
2023-03-16T22:02:47.503Z,5.70
2023-03-16T22:05:01.954Z,2.30
2023-03-16T22:07:18.818Z,2.70
2023-03-16T22:09:34.041Z,3.80
2023-03-16T22:11:47.665Z,2.10
2023-03-16T22:14:02.592Z,3.00
2023-03-16T22:16:21.175Z,3.50
2023-03-16T22:18:40.236Z,3.70
2023-03-16T22:20:53.944Z,5.10
2023-03-16T22:23:07.702Z,2.90
2023-03-16T22:25:23.295Z,2.70
2023-03-16T22:27:36.314Z,3.00
2023-03-16T22:29:51.170Z,3.50
2023-03-16T22:32:06.765Z,4.80
2023-03-16T22:34:28.677Z,2.30
2023-03-16T22:36:41.804Z,2.90
2023-03-16T22:38:58.837Z,3.60
2023-03-16T22:41:15.788Z,4.00
2023-03-16T22:43:38.468Z,3.80
2023-03-16T22:45:51.676Z,3.90
2023-03-16T22:48:06.036Z,3.80
2023-03-16T22:50:25.489Z,4.90
2023-03-16T22:52:40.837Z,2.10
2023-03-16T22:54:53.787Z,1.90
2023-03-16T22:57:06.901Z,2.60
2023-03-16T22:59:24.390Z,2.30
2023-03-16T23:01:42.260Z,3.90
2023-03-16T23:03:56.229Z,3.30
2023-03-16T23:06:10.140Z,2.20
2023-03-16T23:08:25.165Z,2.70
2023-03-16T23:10:38.341Z,1.90
2023-03-16T23:12:52.464Z,2.40
2023-03-16T23:15:06.602Z,2.80
2023-03-16T23:17:23.277Z,2.80
2023-03-16T23:19:38.710Z,2.50
2023-03-16T23:21:52.131Z,2.30
2023-03-16T23:24:05.575Z,2.70
2023-03-16T23:26:29.243Z,2.60
2023-03-16T23:28:42.911Z,3.90
2023-03-16T23:30:56.645Z,2.50
2023-03-16T23:33:11.007Z,1.90
2023-03-16T23:35:27.031Z,2.10
2023-03-16T23:37:40.259Z,2.30
2023-03-16T23:39:53.671Z,2.50
2023-03-16T23:42:07.430Z,2.40
2023-03-16T23:44:24.657Z,2.00
2023-03-16T23:46:37.936Z,2.00
2023-03-16T23:48:52.601Z,1.90
2023-03-16T23:51:06.661Z,2.40
2023-03-16T23:53:22.751Z,2.50
2023-03-16T23:55:35.710Z,2.60
2023-03-16T23:57:52.354Z,2.50
